sensor_id;sensor_type;location;lat;lon;timestamp;temperature;humidity
52725;DHT22;38621;52.830;6.914;2022-08-19T00:01:41;15.40;99.90
52725;DHT22;38621;52.830;6.914;2022-08-19T00:04:10;15.50;99.90
52725;DHT22;38621;52.830;6.914;2022-08-19T00:06:40;15.50;99.90
52725;DHT22;38621;52.830;6.914;2022-08-19T00:09:09;15.50;99.90
52725;DHT22;38621;52.830;6.914;2022-08-19T00:11:36;15.70;99.90
52725;DHT22;38621;52.830;6.914;2022-08-19T00:14:04;15.60;99.90
52725;DHT22;38621;52.830;6.914;2022-08-19T00:16:30;15.60;99.90
52725;DHT22;38621;52.830;6.914;2022-08-19T00:18:56;15.60;99.90
52725;DHT22;38621;52.830;6.914;2022-08-19T00:21:24;15.70;99.90
52725;DHT22;38621;52.830;6.914;2022-08-19T00:23:50;15.70;99.90
52725;DHT22;38621;52.830;6.914;2022-08-19T00:26:16;15.80;99.90
52725;DHT22;38621;52.830;6.914;2022-08-19T00:28:41;15.90;99.90
52725;DHT22;38621;52.830;6.914;2022-08-19T00:31:08;15.90;99.90
52725;DHT22;38621;52.830;6.914;2022-08-19T00:33:34;16.00;99.90
52725;DHT22;38621;52.830;6.914;2022-08-19T00:36:02;15.90;99.90
52725;DHT22;38621;52.830;6.914;2022-08-19T00:38:29;15.90;99.90
52725;DHT22;38621;52.830;6.914;2022-08-19T00:40:55;15.80;99.90
52725;DHT22;38621;52.830;6.914;2022-08-19T00:43:23;15.80;99.90
52725;DHT22;38621;52.830;6.914;2022-08-19T00:45:49;15.80;99.90
52725;DHT22;38621;52.830;6.914;2022-08-19T00:48:16;15.80;99.90
52725;DHT22;38621;52.830;6.914;2022-08-19T00:50:43;15.80;99.90
52725;DHT22;38621;52.830;6.914;2022-08-19T00:53:11;15.90;99.90
52725;DHT22;38621;52.830;6.914;2022-08-19T00:55:38;15.90;99.90
52725;DHT22;38621;52.830;6.914;2022-08-19T00:58:11;15.90;99.90
52725;DHT22;38621;52.830;6.914;2022-08-19T01:00:37;15.90;99.90
52725;DHT22;38621;52.830;6.914;2022-08-19T01:03:06;15.90;99.90
52725;DHT22;38621;52.830;6.914;2022-08-19T01:05:33;15.90;99.90
52725;DHT22;38621;52.830;6.914;2022-08-19T01:08:02;15.80;99.90
52725;DHT22;38621;52.830;6.914;2022-08-19T01:10:32;15.90;99.90
52725;DHT22;38621;52.830;6.914;2022-08-19T01:13:00;15.80;99.90
52725;DHT22;38621;52.830;6.914;2022-08-19T01:15:30;15.80;99.90
52725;DHT22;38621;52.830;6.914;2022-08-19T01:18:00;15.90;99.90
52725;DHT22;38621;52.830;6.914;2022-08-19T01:20:27;16.00;99.90
52725;DHT22;38621;52.830;6.914;2022-08-19T01:22:56;15.90;99.90
52725;DHT22;38621;52.830;6.914;2022-08-19T01:25:28;15.90;99.90
52725;DHT22;38621;52.830;6.914;2022-08-19T01:27:55;16.00;99.90
52725;DHT22;38621;52.830;6.914;2022-08-19T01:30:32;16.00;99.90
52725;DHT22;38621;52.830;6.914;2022-08-19T01:32:58;16.00;99.90
52725;DHT22;38621;52.830;6.914;2022-08-19T01:35:29;15.90;99.90
52725;DHT22;38621;52.830;6.914;2022-08-19T01:37:59;15.90;99.90
52725;DHT22;38621;52.830;6.914;2022-08-19T01:40:30;15.90;99.90
52725;DHT22;38621;52.830;6.914;2022-08-19T01:42:57;15.90;99.90
52725;DHT22;38621;52.830;6.914;2022-08-19T01:45:25;15.80;99.90
52725;DHT22;38621;52.830;6.914;2022-08-19T01:47:52;15.80;99.90
52725;DHT22;38621;52.830;6.914;2022-08-19T01:50:18;15.80;99.90
52725;DHT22;38621;52.830;6.914;2022-08-19T01:52:44;15.70;99.90
52725;DHT22;38621;52.830;6.914;2022-08-19T01:55:16;15.70;99.90
52725;DHT22;38621;52.830;6.914;2022-08-19T01:57:46;15.70;99.90
52725;DHT22;38621;52.830;6.914;2022-08-19T02:00:15;15.70;99.90
52725;DHT22;38621;52.830;6.914;2022-08-19T02:02:42;15.60;99.90
52725;DHT22;38621;52.830;6.914;2022-08-19T02:05:08;15.60;99.90
52725;DHT22;38621;52.830;6.914;2022-08-19T02:07:35;15.50;99.90
52725;DHT22;38621;52.830;6.914;2022-08-19T02:10:03;15.40;99.90
52725;DHT22;38621;52.830;6.914;2022-08-19T02:12:29;15.30;99.90
52725;DHT22;38621;52.830;6.914;2022-08-19T02:14:55;15.20;99.90
52725;DHT22;38621;52.830;6.914;2022-08-19T02:17:21;15.20;99.90
52725;DHT22;38621;52.830;6.914;2022-08-19T02:19:46;15.20;99.90
52725;DHT22;38621;52.830;6.914;2022-08-19T02:22:13;15.20;99.90
52725;DHT22;38621;52.830;6.914;2022-08-19T02:24:38;15.10;99.90
52725;DHT22;38621;52.830;6.914;2022-08-19T02:27:04;15.10;99.90
52725;DHT22;38621;52.830;6.914;2022-08-19T02:29:31;15.00;99.90
52725;DHT22;38621;52.830;6.914;2022-08-19T02:31:57;14.90;99.90
52725;DHT22;38621;52.830;6.914;2022-08-19T02:34:23;14.90;99.90
52725;DHT22;38621;52.830;6.914;2022-08-19T02:36:51;14.80;99.90
52725;DHT22;38621;52.830;6.914;2022-08-19T02:39:17;14.80;99.90
52725;DHT22;38621;52.830;6.914;2022-08-19T02:41:43;14.80;99.90
52725;DHT22;38621;52.830;6.914;2022-08-19T02:44:08;14.80;99.90
52725;DHT22;38621;52.830;6.914;2022-08-19T02:46:34;14.80;99.90
52725;DHT22;38621;52.830;6.914;2022-08-19T02:49:06;14.70;99.90
52725;DHT22;38621;52.830;6.914;2022-08-19T02:51:39;14.60;99.90
52725;DHT22;38621;52.830;6.914;2022-08-19T02:54:07;14.50;99.90
52725;DHT22;38621;52.830;6.914;2022-08-19T02:56:38;14.40;99.90
52725;DHT22;38621;52.830;6.914;2022-08-19T02:59:05;14.40;99.90
52725;DHT22;38621;52.830;6.914;2022-08-19T03:01:37;14.40;99.90
52725;DHT22;38621;52.830;6.914;2022-08-19T03:04:06;14.50;99.90
52725;DHT22;38621;52.830;6.914;2022-08-19T03:06:35;14.50;99.90
52725;DHT22;38621;52.830;6.914;2022-08-19T03:09:01;14.50;99.90
52725;DHT22;38621;52.830;6.914;2022-08-19T03:11:29;14.40;99.90
52725;DHT22;38621;52.830;6.914;2022-08-19T03:13:56;14.30;99.90
52725;DHT22;38621;52.830;6.914;2022-08-19T03:16:24;14.30;99.90
52725;DHT22;38621;52.830;6.914;2022-08-19T03:18:51;14.30;99.90
52725;DHT22;38621;52.830;6.914;2022-08-19T03:21:21;14.30;99.90
52725;DHT22;38621;52.830;6.914;2022-08-19T03:23:48;14.40;99.90
52725;DHT22;38621;52.830;6.914;2022-08-19T03:26:13;14.50;99.90
52725;DHT22;38621;52.830;6.914;2022-08-19T03:28:44;14.50;99.90
52725;DHT22;38621;52.830;6.914;2022-08-19T03:31:13;14.30;99.90
52725;DHT22;38621;52.830;6.914;2022-08-19T03:33:39;14.30;99.90
52725;DHT22;38621;52.830;6.914;2022-08-19T03:36:09;14.20;99.90
52725;DHT22;38621;52.830;6.914;2022-08-19T03:38:38;14.20;99.90
52725;DHT22;38621;52.830;6.914;2022-08-19T03:41:11;14.10;99.90
52725;DHT22;38621;52.830;6.914;2022-08-19T03:43:38;14.10;99.90
52725;DHT22;38621;52.830;6.914;2022-08-19T03:46:15;14.20;99.90
52725;DHT22;38621;52.830;6.914;2022-08-19T03:48:42;14.20;99.90
52725;DHT22;38621;52.830;6.914;2022-08-19T03:51:17;14.10;99.90
52725;DHT22;38621;52.830;6.914;2022-08-19T03:53:43;14.10;99.90
52725;DHT22;38621;52.830;6.914;2022-08-19T03:56:09;14.10;99.90
52725;DHT22;38621;52.830;6.914;2022-08-19T03:58:36;14.10;99.90
52725;DHT22;38621;52.830;6.914;2022-08-19T04:01:14;14.10;99.90
52725;DHT22;38621;52.830;6.914;2022-08-19T04:03:40;14.10;99.90
52725;DHT22;38621;52.830;6.914;2022-08-19T04:06:20;14.10;99.90
52725;DHT22;38621;52.830;6.914;2022-08-19T04:08:50;14.10;99.90
52725;DHT22;38621;52.830;6.914;2022-08-19T04:11:25;14.10;99.90
52725;DHT22;38621;52.830;6.914;2022-08-19T04:13:52;14.00;99.90
52725;DHT22;38621;52.830;6.914;2022-08-19T04:16:19;13.90;99.90
52725;DHT22;38621;52.830;6.914;2022-08-19T04:18:46;13.80;99.90
52725;DHT22;38621;52.830;6.914;2022-08-19T04:21:22;13.70;99.90
52725;DHT22;38621;52.830;6.914;2022-08-19T04:23:49;13.70;99.90
52725;DHT22;38621;52.830;6.914;2022-08-19T04:26:21;13.60;99.90
52725;DHT22;38621;52.830;6.914;2022-08-19T04:28:47;13.60;99.90
52725;DHT22;38621;52.830;6.914;2022-08-19T04:31:19;13.60;99.90
52725;DHT22;38621;52.830;6.914;2022-08-19T04:33:45;13.60;99.90
52725;DHT22;38621;52.830;6.914;2022-08-19T04:36:21;13.60;99.90
52725;DHT22;38621;52.830;6.914;2022-08-19T04:38:48;13.70;99.90
52725;DHT22;38621;52.830;6.914;2022-08-19T04:41:14;13.70;99.90
52725;DHT22;38621;52.830;6.914;2022-08-19T04:43:59;13.60;99.90
52725;DHT22;38621;52.830;6.914;2022-08-19T04:46:24;13.60;99.90
52725;DHT22;38621;52.830;6.914;2022-08-19T04:48:50;13.70;99.90
52725;DHT22;38621;52.830;6.914;2022-08-19T04:51:16;13.70;99.90
52725;DHT22;38621;52.830;6.914;2022-08-19T04:53:42;13.70;99.90
52725;DHT22;38621;52.830;6.914;2022-08-19T04:56:14;13.80;99.90
52725;DHT22;38621;52.830;6.914;2022-08-19T04:58:41;13.80;99.90
52725;DHT22;38621;52.830;6.914;2022-08-19T05:01:09;13.90;99.90
52725;DHT22;38621;52.830;6.914;2022-08-19T05:03:36;13.90;99.90
52725;DHT22;38621;52.830;6.914;2022-08-19T05:06:12;14.00;99.90
52725;DHT22;38621;52.830;6.914;2022-08-19T05:08:40;14.10;99.90
52725;DHT22;38621;52.830;6.914;2022-08-19T05:11:16;14.10;99.90
52725;DHT22;38621;52.830;6.914;2022-08-19T05:13:43;14.20;99.90
52725;DHT22;38621;52.830;6.914;2022-08-19T05:16:11;14.20;99.90
52725;DHT22;38621;52.830;6.914;2022-08-19T05:18:38;14.30;99.90
52725;DHT22;38621;52.830;6.914;2022-08-19T05:21:22;14.40;99.90
52725;DHT22;38621;52.830;6.914;2022-08-19T05:24:07;14.40;99.90
52725;DHT22;38621;52.830;6.914;2022-08-19T05:26:37;14.50;99.90
52725;DHT22;38621;52.830;6.914;2022-08-19T05:29:03;14.50;99.90
52725;DHT22;38621;52.830;6.914;2022-08-19T05:31:30;14.60;99.90
52725;DHT22;38621;52.830;6.914;2022-08-19T05:33:55;14.60;99.90
52725;DHT22;38621;52.830;6.914;2022-08-19T05:36:25;14.70;99.90
52725;DHT22;38621;52.830;6.914;2022-08-19T05:38:51;14.70;99.90
52725;DHT22;38621;52.830;6.914;2022-08-19T05:41:18;14.90;99.90
52725;DHT22;38621;52.830;6.914;2022-08-19T05:43:44;15.00;99.90
52725;DHT22;38621;52.830;6.914;2022-08-19T05:46:19;15.20;99.90
52725;DHT22;38621;52.830;6.914;2022-08-19T05:48:45;15.30;99.90
52725;DHT22;38621;52.830;6.914;2022-08-19T05:51:11;15.50;99.90
52725;DHT22;38621;52.830;6.914;2022-08-19T05:53:37;15.70;99.90
52725;DHT22;38621;52.830;6.914;2022-08-19T05:56:07;15.80;99.90
52725;DHT22;38621;52.830;6.914;2022-08-19T05:58:34;16.00;99.90
52725;DHT22;38621;52.830;6.914;2022-08-19T06:01:00;16.10;99.90
52725;DHT22;38621;52.830;6.914;2022-08-19T06:03:32;16.30;99.90
52725;DHT22;38621;52.830;6.914;2022-08-19T06:05:59;16.30;99.90
52725;DHT22;38621;52.830;6.914;2022-08-19T06:08:26;16.40;99.90
52725;DHT22;38621;52.830;6.914;2022-08-19T06:10:52;16.50;99.90
52725;DHT22;38621;52.830;6.914;2022-08-19T06:13:18;16.50;99.90
52725;DHT22;38621;52.830;6.914;2022-08-19T06:15:45;16.60;99.90
52725;DHT22;38621;52.830;6.914;2022-08-19T06:18:13;16.70;99.90
52725;DHT22;38621;52.830;6.914;2022-08-19T06:20:40;16.70;99.90
52725;DHT22;38621;52.830;6.914;2022-08-19T06:23:06;16.80;99.90
52725;DHT22;38621;52.830;6.914;2022-08-19T06:25:32;16.90;99.90
52725;DHT22;38621;52.830;6.914;2022-08-19T06:27:57;17.00;99.90
52725;DHT22;38621;52.830;6.914;2022-08-19T06:30:23;17.10;99.90
52725;DHT22;38621;52.830;6.914;2022-08-19T06:32:49;17.20;99.90
52725;DHT22;38621;52.830;6.914;2022-08-19T06:35:16;17.30;99.90
52725;DHT22;38621;52.830;6.914;2022-08-19T06:37:42;17.40;99.90
52725;DHT22;38621;52.830;6.914;2022-08-19T06:40:08;17.50;99.90
52725;DHT22;38621;52.830;6.914;2022-08-19T06:42:36;17.60;99.90
52725;DHT22;38621;52.830;6.914;2022-08-19T06:45:04;17.80;99.90
52725;DHT22;38621;52.830;6.914;2022-08-19T06:47:31;17.90;99.90
52725;DHT22;38621;52.830;6.914;2022-08-19T06:49:59;18.00;99.90
52725;DHT22;38621;52.830;6.914;2022-08-19T06:52:33;18.10;99.90
52725;DHT22;38621;52.830;6.914;2022-08-19T06:55:00;18.30;99.90
52725;DHT22;38621;52.830;6.914;2022-08-19T06:57:27;18.30;99.90
52725;DHT22;38621;52.830;6.914;2022-08-19T06:59:58;18.50;99.90
52725;DHT22;38621;52.830;6.914;2022-08-19T07:02:25;18.60;99.90
52725;DHT22;38621;52.830;6.914;2022-08-19T07:04:52;18.70;99.90
52725;DHT22;38621;52.830;6.914;2022-08-19T07:07:18;18.90;99.90
52725;DHT22;38621;52.830;6.914;2022-08-19T07:09:45;19.00;99.90
52725;DHT22;38621;52.830;6.914;2022-08-19T07:12:12;19.10;99.90
52725;DHT22;38621;52.830;6.914;2022-08-19T07:14:40;19.20;99.90
52725;DHT22;38621;52.830;6.914;2022-08-19T07:17:09;19.20;99.90
52725;DHT22;38621;52.830;6.914;2022-08-19T07:19:35;19.20;99.90
52725;DHT22;38621;52.830;6.914;2022-08-19T07:22:05;19.30;99.90
52725;DHT22;38621;52.830;6.914;2022-08-19T07:24:31;19.30;99.90
52725;DHT22;38621;52.830;6.914;2022-08-19T07:26:59;19.40;99.90
52725;DHT22;38621;52.830;6.914;2022-08-19T07:29:28;19.40;99.90
52725;DHT22;38621;52.830;6.914;2022-08-19T07:31:55;19.40;99.90
52725;DHT22;38621;52.830;6.914;2022-08-19T07:34:23;19.50;99.90
52725;DHT22;38621;52.830;6.914;2022-08-19T07:36:49;19.50;99.90
52725;DHT22;38621;52.830;6.914;2022-08-19T07:39:26;19.50;99.90
52725;DHT22;38621;52.830;6.914;2022-08-19T07:41:53;19.50;99.90
52725;DHT22;38621;52.830;6.914;2022-08-19T07:44:20;19.50;99.90
52725;DHT22;38621;52.830;6.914;2022-08-19T07:46:50;19.50;99.90
52725;DHT22;38621;52.830;6.914;2022-08-19T07:49:18;19.60;99.90
52725;DHT22;38621;52.830;6.914;2022-08-19T07:51:53;19.60;99.90
52725;DHT22;38621;52.830;6.914;2022-08-19T07:54:20;19.70;99.90
52725;DHT22;38621;52.830;6.914;2022-08-19T07:56:47;19.80;99.90
52725;DHT22;38621;52.830;6.914;2022-08-19T07:59:12;19.90;99.90
52725;DHT22;38621;52.830;6.914;2022-08-19T08:01:39;20.00;99.90
52725;DHT22;38621;52.830;6.914;2022-08-19T08:04:06;20.20;99.90
52725;DHT22;38621;52.830;6.914;2022-08-19T08:06:52;20.30;99.90
52725;DHT22;38621;52.830;6.914;2022-08-19T08:09:39;20.40;99.90
52725;DHT22;38621;52.830;6.914;2022-08-19T08:12:14;20.60;99.90
52725;DHT22;38621;52.830;6.914;2022-08-19T08:14:46;20.60;99.90
52725;DHT22;38621;52.830;6.914;2022-08-19T08:17:14;20.70;99.90
52725;DHT22;38621;52.830;6.914;2022-08-19T08:19:40;20.80;99.90
52725;DHT22;38621;52.830;6.914;2022-08-19T08:22:12;20.90;99.90
52725;DHT22;38621;52.830;6.914;2022-08-19T08:25:14;21.00;99.90
52725;DHT22;38621;52.830;6.914;2022-08-19T08:27:42;21.10;99.90
52725;DHT22;38621;52.830;6.914;2022-08-19T08:30:11;21.20;99.90
52725;DHT22;38621;52.830;6.914;2022-08-19T08:32:38;21.30;99.90
52725;DHT22;38621;52.830;6.914;2022-08-19T08:35:08;21.40;99.90
52725;DHT22;38621;52.830;6.914;2022-08-19T08:37:35;21.50;99.90
52725;DHT22;38621;52.830;6.914;2022-08-19T08:40:10;21.60;99.90
52725;DHT22;38621;52.830;6.914;2022-08-19T08:42:47;21.70;99.90
52725;DHT22;38621;52.830;6.914;2022-08-19T08:45:17;21.80;99.90
52725;DHT22;38621;52.830;6.914;2022-08-19T08:47:45;21.80;99.90
52725;DHT22;38621;52.830;6.914;2022-08-19T08:50:24;21.90;99.90
52725;DHT22;38621;52.830;6.914;2022-08-19T08:52:53;22.10;99.90
52725;DHT22;38621;52.830;6.914;2022-08-19T08:55:24;22.10;99.90
52725;DHT22;38621;52.830;6.914;2022-08-19T08:58:06;22.20;99.90
52725;DHT22;38621;52.830;6.914;2022-08-19T09:00:38;22.30;99.90
52725;DHT22;38621;52.830;6.914;2022-08-19T09:03:16;22.40;99.90
52725;DHT22;38621;52.830;6.914;2022-08-19T09:08:33;22.60;99.90
52725;DHT22;38621;52.830;6.914;2022-08-19T09:11:06;22.70;99.90
52725;DHT22;38621;52.830;6.914;2022-08-19T09:13:41;22.80;99.90
52725;DHT22;38621;52.830;6.914;2022-08-19T09:16:13;22.80;99.90
52725;DHT22;38621;52.830;6.914;2022-08-19T09:18:44;22.80;99.90
52725;DHT22;38621;52.830;6.914;2022-08-19T09:21:10;22.90;99.90
52725;DHT22;38621;52.830;6.914;2022-08-19T09:23:36;23.00;99.90
52725;DHT22;38621;52.830;6.914;2022-08-19T09:26:07;23.10;99.90
52725;DHT22;38621;52.830;6.914;2022-08-19T09:28:34;23.10;99.90
52725;DHT22;38621;52.830;6.914;2022-08-19T09:31:00;23.10;99.90
52725;DHT22;38621;52.830;6.914;2022-08-19T09:33:25;23.20;99.90
52725;DHT22;38621;52.830;6.914;2022-08-19T09:36:08;23.30;99.90
52725;DHT22;38621;52.830;6.914;2022-08-19T09:38:35;23.40;99.90
52725;DHT22;38621;52.830;6.914;2022-08-19T09:41:13;23.40;99.90
52725;DHT22;38621;52.830;6.914;2022-08-19T09:43:40;23.50;99.90
52725;DHT22;38621;52.830;6.914;2022-08-19T09:46:08;23.60;99.90
52725;DHT22;38621;52.830;6.914;2022-08-19T09:48:38;23.70;99.90
52725;DHT22;38621;52.830;6.914;2022-08-19T09:51:11;23.80;99.90
52725;DHT22;38621;52.830;6.914;2022-08-19T09:53:42;23.80;99.90
52725;DHT22;38621;52.830;6.914;2022-08-19T09:56:09;23.90;99.90
52725;DHT22;38621;52.830;6.914;2022-08-19T09:58:36;23.90;99.90
52725;DHT22;38621;52.830;6.914;2022-08-19T10:01:03;23.90;99.90
52725;DHT22;38621;52.830;6.914;2022-08-19T10:03:31;23.90;99.90
52725;DHT22;38621;52.830;6.914;2022-08-19T10:05:59;24.00;99.90
52725;DHT22;38621;52.830;6.914;2022-08-19T10:08:28;24.00;99.90
52725;DHT22;38621;52.830;6.914;2022-08-19T10:10:55;24.10;99.90
52725;DHT22;38621;52.830;6.914;2022-08-19T10:13:25;24.10;99.90
52725;DHT22;38621;52.830;6.914;2022-08-19T10:15:52;24.10;99.90
52725;DHT22;38621;52.830;6.914;2022-08-19T10:18:20;24.10;99.90
52725;DHT22;38621;52.830;6.914;2022-08-19T10:20:47;24.10;99.90
52725;DHT22;38621;52.830;6.914;2022-08-19T10:23:14;24.10;99.90
52725;DHT22;38621;52.830;6.914;2022-08-19T10:25:41;24.10;99.90
52725;DHT22;38621;52.830;6.914;2022-08-19T10:28:07;24.10;99.90
52725;DHT22;38621;52.830;6.914;2022-08-19T10:30:35;24.10;99.90
52725;DHT22;38621;52.830;6.914;2022-08-19T10:33:01;24.10;99.90
52725;DHT22;38621;52.830;6.914;2022-08-19T10:35:26;24.10;99.90
52725;DHT22;38621;52.830;6.914;2022-08-19T10:37:55;24.20;99.90
52725;DHT22;38621;52.830;6.914;2022-08-19T10:40:25;24.20;99.90
52725;DHT22;38621;52.830;6.914;2022-08-19T10:42:52;24.10;99.90
52725;DHT22;38621;52.830;6.914;2022-08-19T10:45:18;24.10;99.90
52725;DHT22;38621;52.830;6.914;2022-08-19T10:47:44;24.20;99.90
52725;DHT22;38621;52.830;6.914;2022-08-19T10:50:10;24.30;99.90
52725;DHT22;38621;52.830;6.914;2022-08-19T10:52:54;24.40;99.90
52725;DHT22;38621;52.830;6.914;2022-08-19T10:55:23;24.50;99.90
52725;DHT22;38621;52.830;6.914;2022-08-19T10:58:12;24.60;99.90
52725;DHT22;38621;52.830;6.914;2022-08-19T11:00:38;24.60;99.90
52725;DHT22;38621;52.830;6.914;2022-08-19T11:03:05;24.70;99.90
52725;DHT22;38621;52.830;6.914;2022-08-19T11:05:31;24.70;99.90
52725;DHT22;38621;52.830;6.914;2022-08-19T11:07:57;24.80;99.90
52725;DHT22;38621;52.830;6.914;2022-08-19T11:10:22;24.90;99.90
52725;DHT22;38621;52.830;6.914;2022-08-19T11:12:49;25.00;99.90
52725;DHT22;38621;52.830;6.914;2022-08-19T11:15:19;24.90;99.90
52725;DHT22;38621;52.830;6.914;2022-08-19T11:17:45;24.80;99.90
52725;DHT22;38621;52.830;6.914;2022-08-19T11:20:13;24.70;99.90
52725;DHT22;38621;52.830;6.914;2022-08-19T11:22:40;24.80;99.90
52725;DHT22;38621;52.830;6.914;2022-08-19T11:25:07;24.90;99.90
52725;DHT22;38621;52.830;6.914;2022-08-19T11:27:33;25.00;99.90
52725;DHT22;38621;52.830;6.914;2022-08-19T11:30:03;25.10;99.90
52725;DHT22;38621;52.830;6.914;2022-08-19T11:32:29;25.20;99.90
52725;DHT22;38621;52.830;6.914;2022-08-19T11:34:54;25.20;99.90
52725;DHT22;38621;52.830;6.914;2022-08-19T11:37:20;24.90;99.90
52725;DHT22;38621;52.830;6.914;2022-08-19T11:39:46;24.80;99.90
52725;DHT22;38621;52.830;6.914;2022-08-19T11:42:11;24.80;99.90
52725;DHT22;38621;52.830;6.914;2022-08-19T11:44:56;24.90;99.90
52725;DHT22;38621;52.830;6.914;2022-08-19T11:47:22;25.10;99.90
52725;DHT22;38621;52.830;6.914;2022-08-19T11:49:48;25.20;99.90
52725;DHT22;38621;52.830;6.914;2022-08-19T11:52:13;25.20;99.90
52725;DHT22;38621;52.830;6.914;2022-08-19T11:54:39;25.30;99.90
52725;DHT22;38621;52.830;6.914;2022-08-19T11:57:05;25.30;99.90
52725;DHT22;38621;52.830;6.914;2022-08-19T11:59:31;25.40;99.90
52725;DHT22;38621;52.830;6.914;2022-08-19T12:01:56;25.50;99.90
52725;DHT22;38621;52.830;6.914;2022-08-19T12:04:23;25.40;99.90
52725;DHT22;38621;52.830;6.914;2022-08-19T12:06:48;25.30;99.90
52725;DHT22;38621;52.830;6.914;2022-08-19T12:09:15;25.00;99.90
52725;DHT22;38621;52.830;6.914;2022-08-19T12:11:43;24.90;99.90
52725;DHT22;38621;52.830;6.914;2022-08-19T12:14:13;24.70;99.90
52725;DHT22;38621;52.830;6.914;2022-08-19T12:16:39;24.70;99.90
52725;DHT22;38621;52.830;6.914;2022-08-19T12:19:06;24.60;99.90
52725;DHT22;38621;52.830;6.914;2022-08-19T12:21:34;24.50;99.90
52725;DHT22;38621;52.830;6.914;2022-08-19T12:24:01;24.50;99.90
52725;DHT22;38621;52.830;6.914;2022-08-19T12:26:29;24.50;99.90
52725;DHT22;38621;52.830;6.914;2022-08-19T12:28:57;24.60;99.90
52725;DHT22;38621;52.830;6.914;2022-08-19T12:31:25;24.70;99.90
52725;DHT22;38621;52.830;6.914;2022-08-19T12:33:51;24.70;99.90
52725;DHT22;38621;52.830;6.914;2022-08-19T12:36:18;24.70;99.90
52725;DHT22;38621;52.830;6.914;2022-08-19T12:38:44;24.70;99.90
52725;DHT22;38621;52.830;6.914;2022-08-19T12:41:13;24.80;99.90
52725;DHT22;38621;52.830;6.914;2022-08-19T12:43:38;25.10;99.90
52725;DHT22;38621;52.830;6.914;2022-08-19T12:46:05;25.30;99.90
52725;DHT22;38621;52.830;6.914;2022-08-19T12:48:32;25.40;99.90
52725;DHT22;38621;52.830;6.914;2022-08-19T12:50:58;25.30;99.90
52725;DHT22;38621;52.830;6.914;2022-08-19T12:53:24;25.40;99.90
52725;DHT22;38621;52.830;6.914;2022-08-19T12:55:59;25.50;99.90
52725;DHT22;38621;52.830;6.914;2022-08-19T12:58:26;25.70;99.90
52725;DHT22;38621;52.830;6.914;2022-08-19T13:00:52;25.70;99.90
52725;DHT22;38621;52.830;6.914;2022-08-19T13:03:17;25.80;99.90
52725;DHT22;38621;52.830;6.914;2022-08-19T13:05:43;25.80;99.90
52725;DHT22;38621;52.830;6.914;2022-08-19T13:08:09;25.60;99.90
52725;DHT22;38621;52.830;6.914;2022-08-19T13:10:35;25.50;99.90
52725;DHT22;38621;52.830;6.914;2022-08-19T13:13:07;25.30;99.90
52725;DHT22;38621;52.830;6.914;2022-08-19T13:15:39;25.30;99.90
52725;DHT22;38621;52.830;6.914;2022-08-19T13:18:06;25.20;99.90
52725;DHT22;38621;52.830;6.914;2022-08-19T13:20:32;25.20;99.90
52725;DHT22;38621;52.830;6.914;2022-08-19T13:22:58;25.20;99.90
52725;DHT22;38621;52.830;6.914;2022-08-19T13:25:24;25.20;99.90
52725;DHT22;38621;52.830;6.914;2022-08-19T13:27:50;25.20;99.90
52725;DHT22;38621;52.830;6.914;2022-08-19T13:30:18;25.20;99.90
52725;DHT22;38621;52.830;6.914;2022-08-19T13:33:03;25.30;99.90
52725;DHT22;38621;52.830;6.914;2022-08-19T13:35:50;25.30;99.90
52725;DHT22;38621;52.830;6.914;2022-08-19T13:38:21;25.40;99.90
52725;DHT22;38621;52.830;6.914;2022-08-19T13:40:50;25.40;99.90
52725;DHT22;38621;52.830;6.914;2022-08-19T13:43:17;25.50;99.90
52725;DHT22;38621;52.830;6.914;2022-08-19T13:45:43;25.50;99.90
52725;DHT22;38621;52.830;6.914;2022-08-19T13:48:09;25.60;99.90
52725;DHT22;38621;52.830;6.914;2022-08-19T13:50:40;25.70;99.90
52725;DHT22;38621;52.830;6.914;2022-08-19T13:53:08;25.70;99.90
52725;DHT22;38621;52.830;6.914;2022-08-19T13:55:36;25.70;99.90
52725;DHT22;38621;52.830;6.914;2022-08-19T13:58:02;25.80;99.90
52725;DHT22;38621;52.830;6.914;2022-08-19T14:00:31;25.90;99.90
52725;DHT22;38621;52.830;6.914;2022-08-19T14:02:57;26.00;99.90
52725;DHT22;38621;52.830;6.914;2022-08-19T14:05:25;26.00;99.90
52725;DHT22;38621;52.830;6.914;2022-08-19T14:07:51;26.00;99.90
52725;DHT22;38621;52.830;6.914;2022-08-19T14:10:17;25.90;99.90
52725;DHT22;38621;52.830;6.914;2022-08-19T14:12:44;25.80;99.90
52725;DHT22;38621;52.830;6.914;2022-08-19T14:15:11;25.80;99.90
52725;DHT22;38621;52.830;6.914;2022-08-19T14:17:45;25.80;99.90
52725;DHT22;38621;52.830;6.914;2022-08-19T14:20:12;25.70;99.90
52725;DHT22;38621;52.830;6.914;2022-08-19T14:22:40;25.70;99.90
52725;DHT22;38621;52.830;6.914;2022-08-19T14:25:11;25.70;99.90
52725;DHT22;38621;52.830;6.914;2022-08-19T14:27:38;25.70;99.90
52725;DHT22;38621;52.830;6.914;2022-08-19T14:30:07;25.70;99.90
52725;DHT22;38621;52.830;6.914;2022-08-19T14:32:34;25.80;99.90
52725;DHT22;38621;52.830;6.914;2022-08-19T14:35:01;25.70;99.90
52725;DHT22;38621;52.830;6.914;2022-08-19T14:37:26;25.70;99.90
52725;DHT22;38621;52.830;6.914;2022-08-19T14:39:52;25.70;99.90
52725;DHT22;38621;52.830;6.914;2022-08-19T14:42:19;25.70;99.90
52725;DHT22;38621;52.830;6.914;2022-08-19T14:44:45;25.70;99.90
52725;DHT22;38621;52.830;6.914;2022-08-19T14:47:10;25.70;99.90
52725;DHT22;38621;52.830;6.914;2022-08-19T14:49:36;25.80;99.90
52725;DHT22;38621;52.830;6.914;2022-08-19T14:52:03;26.00;99.90
52725;DHT22;38621;52.830;6.914;2022-08-19T14:54:30;26.00;99.90
52725;DHT22;38621;52.830;6.914;2022-08-19T14:56:55;26.10;99.90
52725;DHT22;38621;52.830;6.914;2022-08-19T14:59:21;26.20;99.90
52725;DHT22;38621;52.830;6.914;2022-08-19T15:01:47;26.20;99.90
52725;DHT22;38621;52.830;6.914;2022-08-19T15:04:13;26.10;99.90
52725;DHT22;38621;52.830;6.914;2022-08-19T15:06:39;26.10;99.90
52725;DHT22;38621;52.830;6.914;2022-08-19T15:09:05;26.00;99.90
52725;DHT22;38621;52.830;6.914;2022-08-19T15:11:31;25.80;99.90
52725;DHT22;38621;52.830;6.914;2022-08-19T15:13:58;25.70;99.90
52725;DHT22;38621;52.830;6.914;2022-08-19T15:16:25;25.60;99.90
52725;DHT22;38621;52.830;6.914;2022-08-19T15:18:54;25.50;99.90
52725;DHT22;38621;52.830;6.914;2022-08-19T15:21:21;25.40;99.90
52725;DHT22;38621;52.830;6.914;2022-08-19T15:23:49;25.40;99.90
52725;DHT22;38621;52.830;6.914;2022-08-19T15:26:16;25.20;99.90
52725;DHT22;38621;52.830;6.914;2022-08-19T15:28:43;25.20;99.90
52725;DHT22;38621;52.830;6.914;2022-08-19T15:31:09;25.10;99.90
52725;DHT22;38621;52.830;6.914;2022-08-19T15:33:36;25.00;99.90
52725;DHT22;38621;52.830;6.914;2022-08-19T15:36:04;25.00;99.90
52725;DHT22;38621;52.830;6.914;2022-08-19T15:38:31;25.00;99.90
52725;DHT22;38621;52.830;6.914;2022-08-19T15:41:00;24.90;99.90